Relevés horaires Bierset (Belgique)


Relevés horaires à Bierset - Dimanche 07 Juin 2020
Heure UTC1 Température [°C] Vent [km/h] Hum. [%] Pres.4 [hPa] Visi. [Km] Nébu. [octa] Préc.5 [mm] Cond.
2m. Res. Ros. Dir.2 Vit. Moy. Raf.3
23:00 11.6 11.6 7.3 ONO 3.7 3.7 5.6 75 1013.4(1.3/3h) 30 7/8 -- --
22:00 12.5 12.5 7.8 NO 3.7 5.6 11.1 73 1013.1(1.7/3h) 30 7/8 -- --
21:00 12.8 12.8 7.7 NO 5.6 7.4 11.1 71 1012.7(1.8/3h) 30 6/8 -- --
20:00 13.8 13.8 7.5 NO 5.6 5.6 11.1 66 1012(1.6/3h) 30 5/8 -- --
19:00 16.2 16.2 5.7 ONO 5.6 7.4 11.1 50 1011.1(0.9/3h) 30 5/8 -- --
18:00 16.9 16.9 4.7 O 5.6 11.1 14.8 44 1010.6(0.8/3h) 30 4/8 0/12h
--
17:00 17.3 17.3 5.8 ONO 3.7 7.4 14.8 47 1010.1(0.6/3h) 30 5/8 -- --
16:00 16.9 16.9 5.0 O 5.6 9.3 14.8 45 1010.1(0.8/3h) 30 7/8 -- --
15:00 16.6 16.6 5.5 O 7.4 11.1 14.8 48 1009.9(0.7/3h) 30 7/8 -- --
14:00 16.5 16.5 5.4 O 7.4 9.3 14.8 48 1009.5(0.8/3h) 30 6/8 -- --
13:00 16.0 15.9 4.8 OSO 9.3 11.1 14.8 47 1009.3(1.2/3h) 30 6/8 -- --
12:00 15.3 14.8 5.6 OSO 11.1 13.0 18.5 52 1009.2(1.7/3h) 30 6/8 0/6h
--
11:00 14.2 13.7 5.2 OSO 9.3 11.1 16.7 55 1008.9(2.0/3h) 30 6/8 -- --
10:00 14.0 13.3 5.2 OSO 11.1 11.1 16.7 55 1008.2(2.0/3h) 30 5/8 -- --
09:00 12.7 11.7 5.6 OSO 11.1 13.0 18.5 62 1007.6(2.0/3h) 30 5/8 -- --
08:00 13.7 13.2 7.0 OSO 9.3 13.0 18.5 64 1006.9(2.0/3h) 30 3/8 -- --
07:00 12.0 10.9 6.8 OSO 11.1 13.0 18.5 70 1006.3(1.8/3h) 30 4/8 -- --
06:00 11.1 9.5 6.3 OSO 13.0 13.0 18.5 72 1005.7(1.7/3h) 30 6/8 0/12h
--
05:00 10.1 8.3 5.7 SO 13.0 13.0 18.5 74 1005.1(1.3/3h) 30 5/8 -- --
04:00 9.9 8.1 5.7 SO 13.0 13.0 18.5 75 1004.6(1.1/3h) 30 7/8 -- --
03:00 10.4 9.2 4.5 SO 9.3 13.0 18.5 67 1004.1(0.4/3h) 30 7/8 -- --
02:00 10.4 8.9 3.8 SO 11.1 11.1 16.7 64 1003.8(0.0/3h) 30 7/8 -- --
01:00 10.7 9.3 3.0 SSO 11.1 11.1 14.8 59 1003.4(-0.4/3h) 30 6/8 -- --

1 Coordinated Universal Time. Actuellement il est 15:00 locale et 14:00 UTC.

2 Le vent souffle depuis la direction indiquée vers la direction oposée.

3 Les rafales max. sont disponible 40 min après l'heure du relevé.

4 Pour les stations d'altitude (plus de 600m) le géopotentiel du niveau le plus proche de la pression obligatoire est indiqué.

5 Les stations disposant d'un diffuseur peuvent indiquer "trace". Cela signifie que des précipitations ont touchés le sol mais que la quantité est inférieure à 0.1 mm.

Récapitulatif de la journée
Température [°C] Vent [km/h] Ensoleillement4 [h] Precipitations totale5 [mm] Pression [Hpa]
Min1 Max.2 Moy.3 Max. Min Max.
9.8 18.0 10.3 18.5 0 h 0 min 0 1003.4 1013.4

1 Température minimale relevée entre 18:00 UTC la veille et 18:00 UTC le jour donné.

2 Température maximale relevée entre 06:00 UTC le jour donné et 06:00 UTC le lendemain.

3 Vent moyen de la journée basé sur les relevés horaires.

4 Ensoleillement en heures relevé entre 06:00 UTC la veille et 06:00 UTC le jour donné.

5 Précipitations totales tombées entre 06:00 UTC la jour donné et 06:00 UTC le lendemain.

Graphiques horaires